sensor_id;sensor_type;location;lat;lon;timestamp;P1;durP1;ratioP1;P2;durP2;ratioP2
21979;SDS011;11154;48.558;9.234;2023-02-28T00:00:54;3.20;;;2.13;;
21979;SDS011;11154;48.558;9.234;2023-02-28T00:02:56;4.22;;;2.33;;
21979;SDS011;11154;48.558;9.234;2023-02-28T00:04:59;4.18;;;2.45;;
21979;SDS011;11154;48.558;9.234;2023-02-28T00:07:03;2.85;;;1.80;;
21979;SDS011;11154;48.558;9.234;2023-02-28T00:09:05;3.53;;;1.95;;
21979;SDS011;11154;48.558;9.234;2023-02-28T00:11:07;3.63;;;2.10;;
21979;SDS011;11154;48.558;9.234;2023-02-28T00:13:11;4.90;;;2.35;;
21979;SDS011;11154;48.558;9.234;2023-02-28T00:15:13;3.58;;;2.13;;
21979;SDS011;11154;48.558;9.234;2023-02-28T00:17:15;3.92;;;2.25;;
21979;SDS011;11154;48.558;9.234;2023-02-28T00:19:17;3.15;;;1.98;;
21979;SDS011;11154;48.558;9.234;2023-02-28T00:21:20;4.00;;;2.17;;
21979;SDS011;11154;48.558;9.234;2023-02-28T00:23:22;3.75;;;1.83;;
21979;SDS011;11154;48.558;9.234;2023-02-28T00:25:24;2.95;;;1.83;;
21979;SDS011;11154;48.558;9.234;2023-02-28T00:27:26;5.07;;;2.15;;
21979;SDS011;11154;48.558;9.234;2023-02-28T00:29:28;3.53;;;2.15;;
21979;SDS011;11154;48.558;9.234;2023-02-28T00:31:29;3.50;;;2.30;;
21979;SDS011;11154;48.558;9.234;2023-02-28T00:33:31;3.20;;;2.05;;
21979;SDS011;11154;48.558;9.234;2023-02-28T00:35:33;2.55;;;1.80;;
21979;SDS011;11154;48.558;9.234;2023-02-28T00:37:36;3.40;;;2.15;;
21979;SDS011;11154;48.558;9.234;2023-02-28T00:39:38;5.82;;;2.10;;
21979;SDS011;11154;48.558;9.234;2023-02-28T00:41:40;3.47;;;1.80;;
21979;SDS011;11154;48.558;9.234;2023-02-28T00:43:42;3.78;;;2.03;;
21979;SDS011;11154;48.558;9.234;2023-02-28T00:45:44;4.72;;;2.13;;
21979;SDS011;11154;48.558;9.234;2023-02-28T00:47:45;3.15;;;2.10;;
21979;SDS011;11154;48.558;9.234;2023-02-28T00:49:49;3.42;;;2.03;;
21979;SDS011;11154;48.558;9.234;2023-02-28T00:51:51;4.40;;;2.08;;
21979;SDS011;11154;48.558;9.234;2023-02-28T00:53:55;2.97;;;1.92;;
21979;SDS011;11154;48.558;9.234;2023-02-28T00:55:57;3.28;;;2.20;;
21979;SDS011;11154;48.558;9.234;2023-02-28T00:57:58;3.45;;;1.90;;
21979;SDS011;11154;48.558;9.234;2023-02-28T01:00:00;2.70;;;1.77;;
21979;SDS011;11154;48.558;9.234;2023-02-28T01:02:02;2.83;;;2.03;;
21979;SDS011;11154;48.558;9.234;2023-02-28T01:04:04;6.53;;;2.20;;
21979;SDS011;11154;48.558;9.234;2023-02-28T01:06:05;2.95;;;1.85;;
21979;SDS011;11154;48.558;9.234;2023-02-28T01:08:07;4.35;;;2.03;;
21979;SDS011;11154;48.558;9.234;2023-02-28T01:10:11;3.00;;;1.85;;
21979;SDS011;11154;48.558;9.234;2023-02-28T01:12:12;3.78;;;1.98;;
21979;SDS011;11154;48.558;9.234;2023-02-28T01:14:15;4.78;;;2.40;;
21979;SDS011;11154;48.558;9.234;2023-02-28T01:16:17;4.45;;;2.20;;
21979;SDS011;11154;48.558;9.234;2023-02-28T01:18:19;6.25;;;2.20;;
21979;SDS011;11154;48.558;9.234;2023-02-28T01:20:22;3.30;;;2.00;;
21979;SDS011;11154;48.558;9.234;2023-02-28T01:22:23;3.58;;;2.00;;
21979;SDS011;11154;48.558;9.234;2023-02-28T01:24:25;3.60;;;2.08;;
21979;SDS011;11154;48.558;9.234;2023-02-28T01:26:28;3.90;;;2.22;;
21979;SDS011;11154;48.558;9.234;2023-02-28T01:28:30;6.63;;;2.40;;
21979;SDS011;11154;48.558;9.234;2023-02-28T01:30:32;2.70;;;1.83;;
21979;SDS011;11154;48.558;9.234;2023-02-28T01:32:35;4.07;;;2.10;;
21979;SDS011;11154;48.558;9.234;2023-02-28T01:34:37;3.97;;;1.85;;
21979;SDS011;11154;48.558;9.234;2023-02-28T01:36:39;3.22;;;1.58;;
21979;SDS011;11154;48.558;9.234;2023-02-28T01:38:40;4.85;;;2.15;;
21979;SDS011;11154;48.558;9.234;2023-02-28T01:40:42;2.70;;;1.90;;
21979;SDS011;11154;48.558;9.234;2023-02-28T01:42:45;3.72;;;1.70;;
21979;SDS011;11154;48.558;9.234;2023-02-28T01:45:00;3.13;;;1.88;;
21979;SDS011;11154;48.558;9.234;2023-02-28T01:47:05;3.95;;;1.90;;
21979;SDS011;11154;48.558;9.234;2023-02-28T01:49:08;2.72;;;1.83;;
21979;SDS011;11154;48.558;9.234;2023-02-28T01:51:15;2.33;;;1.75;;
21979;SDS011;11154;48.558;9.234;2023-02-28T01:53:21;4.35;;;1.95;;
21979;SDS011;11154;48.558;9.234;2023-02-28T01:55:29;3.40;;;1.90;;
21979;SDS011;11154;48.558;9.234;2023-02-28T01:57:34;2.53;;;1.92;;
21979;SDS011;11154;48.558;9.234;2023-02-28T01:59:40;4.57;;;2.38;;
21979;SDS011;11154;48.558;9.234;2023-02-28T02:01:46;3.38;;;2.15;;
21979;SDS011;11154;48.558;9.234;2023-02-28T02:03:48;3.25;;;2.20;;
21979;SDS011;11154;48.558;9.234;2023-02-28T02:05:55;4.28;;;2.85;;
21979;SDS011;11154;48.558;9.234;2023-02-28T02:07:57;4.18;;;2.83;;
21979;SDS011;11154;48.558;9.234;2023-02-28T02:10:04;4.40;;;2.58;;
21979;SDS011;11154;48.558;9.234;2023-02-28T02:12:14;4.05;;;2.80;;
21979;SDS011;11154;48.558;9.234;2023-02-28T02:14:31;3.83;;;2.38;;
21979;SDS011;11154;48.558;9.234;2023-02-28T02:16:48;3.10;;;2.50;;
21979;SDS011;11154;48.558;9.234;2023-02-28T02:18:59;4.38;;;2.72;;
21979;SDS011;11154;48.558;9.234;2023-02-28T02:21:15;4.88;;;2.72;;
21979;SDS011;11154;48.558;9.234;2023-02-28T02:25:43;2.97;;;2.45;;
21979;SDS011;11154;48.558;9.234;2023-02-28T02:30:44;3.72;;;2.35;;
21979;SDS011;11154;48.558;9.234;2023-02-28T02:33:31;3.88;;;2.42;;
21979;SDS011;11154;48.558;9.234;2023-02-28T02:35:46;3.30;;;2.72;;
21979;SDS011;11154;48.558;9.234;2023-02-28T02:37:51;3.40;;;2.60;;
21979;SDS011;11154;48.558;9.234;2023-02-28T02:39:58;3.30;;;2.53;;
21979;SDS011;11154;48.558;9.234;2023-02-28T02:42:05;3.95;;;2.60;;
21979;SDS011;11154;48.558;9.234;2023-02-28T02:44:16;4.60;;;2.60;;
21979;SDS011;11154;48.558;9.234;2023-02-28T02:46:23;3.42;;;2.75;;
21979;SDS011;11154;48.558;9.234;2023-02-28T02:48:30;3.90;;;2.80;;
21979;SDS011;11154;48.558;9.234;2023-02-28T02:50:36;3.80;;;2.70;;
21979;SDS011;11154;48.558;9.234;2023-02-28T02:52:44;4.78;;;3.05;;
21979;SDS011;11154;48.558;9.234;2023-02-28T02:54:51;4.47;;;2.67;;
21979;SDS011;11154;48.558;9.234;2023-02-28T02:56:58;4.50;;;3.00;;
21979;SDS011;11154;48.558;9.234;2023-02-28T02:59:04;4.13;;;2.88;;
21979;SDS011;11154;48.558;9.234;2023-02-28T03:01:10;3.75;;;2.80;;
21979;SDS011;11154;48.558;9.234;2023-02-28T03:03:16;3.80;;;2.78;;
21979;SDS011;11154;48.558;9.234;2023-02-28T03:05:25;4.18;;;2.90;;
21979;SDS011;11154;48.558;9.234;2023-02-28T03:07:31;2.88;;;2.58;;
21979;SDS011;11154;48.558;9.234;2023-02-28T03:09:34;4.78;;;3.15;;
21979;SDS011;11154;48.558;9.234;2023-02-28T03:11:37;4.70;;;2.90;;
21979;SDS011;11154;48.558;9.234;2023-02-28T03:16:23;3.75;;;2.75;;
21979;SDS011;11154;48.558;9.234;2023-02-28T03:18:36;3.97;;;2.78;;
21979;SDS011;11154;48.558;9.234;2023-02-28T03:20:46;3.45;;;2.88;;
21979;SDS011;11154;48.558;9.234;2023-02-28T03:22:57;3.92;;;2.83;;
21979;SDS011;11154;48.558;9.234;2023-02-28T03:25:11;4.53;;;3.10;;
21979;SDS011;11154;48.558;9.234;2023-02-28T03:27:22;4.10;;;3.10;;
21979;SDS011;11154;48.558;9.234;2023-02-28T03:29:28;4.45;;;3.10;;
21979;SDS011;11154;48.558;9.234;2023-02-28T03:31:37;5.38;;;2.92;;
21979;SDS011;11154;48.558;9.234;2023-02-28T03:33:43;4.75;;;3.00;;
21979;SDS011;11154;48.558;9.234;2023-02-28T03:35:55;6.47;;;3.28;;
21979;SDS011;11154;48.558;9.234;2023-02-28T03:38:00;4.32;;;3.13;;
21979;SDS011;11154;48.558;9.234;2023-02-28T03:40:11;4.10;;;3.05;;
21979;SDS011;11154;48.558;9.234;2023-02-28T03:42:18;3.55;;;2.72;;
21979;SDS011;11154;48.558;9.234;2023-02-28T03:44:23;3.72;;;2.92;;
21979;SDS011;11154;48.558;9.234;2023-02-28T03:46:31;4.75;;;3.00;;
21979;SDS011;11154;48.558;9.234;2023-02-28T03:48:38;3.55;;;2.88;;
21979;SDS011;11154;48.558;9.234;2023-02-28T03:50:45;3.28;;;2.78;;
21979;SDS011;11154;48.558;9.234;2023-02-28T03:52:49;3.83;;;3.10;;
21979;SDS011;11154;48.558;9.234;2023-02-28T03:54:56;4.25;;;2.92;;
21979;SDS011;11154;48.558;9.234;2023-02-28T03:57:04;4.38;;;2.90;;
21979;SDS011;11154;48.558;9.234;2023-02-28T03:59:13;4.80;;;3.20;;
21979;SDS011;11154;48.558;9.234;2023-02-28T04:01:20;3.42;;;3.00;;
21979;SDS011;11154;48.558;9.234;2023-02-28T04:03:26;5.65;;;3.28;;
21979;SDS011;11154;48.558;9.234;2023-02-28T04:05:28;3.78;;;2.65;;
21979;SDS011;11154;48.558;9.234;2023-02-28T04:07:31;4.40;;;2.97;;
21979;SDS011;11154;48.558;9.234;2023-02-28T04:09:33;5.40;;;2.88;;
21979;SDS011;11154;48.558;9.234;2023-02-28T04:11:36;6.35;;;3.08;;
21979;SDS011;11154;48.558;9.234;2023-02-28T04:13:40;3.67;;;2.60;;
21979;SDS011;11154;48.558;9.234;2023-02-28T04:15:43;4.38;;;2.67;;
21979;SDS011;11154;48.558;9.234;2023-02-28T04:17:44;5.70;;;2.90;;
21979;SDS011;11154;48.558;9.234;2023-02-28T04:19:46;5.25;;;2.88;;
21979;SDS011;11154;48.558;9.234;2023-02-28T04:21:49;4.03;;;2.65;;
21979;SDS011;11154;48.558;9.234;2023-02-28T04:23:52;4.40;;;2.55;;
21979;SDS011;11154;48.558;9.234;2023-02-28T04:25:54;5.05;;;2.95;;
21979;SDS011;11154;48.558;9.234;2023-02-28T04:27:56;4.78;;;2.65;;
21979;SDS011;11154;48.558;9.234;2023-02-28T04:29:59;4.18;;;2.50;;
21979;SDS011;11154;48.558;9.234;2023-02-28T04:32:01;4.03;;;2.47;;
21979;SDS011;11154;48.558;9.234;2023-02-28T04:34:04;4.30;;;2.67;;
21979;SDS011;11154;48.558;9.234;2023-02-28T04:36:07;4.00;;;2.25;;
21979;SDS011;11154;48.558;9.234;2023-02-28T04:38:09;4.53;;;2.67;;
21979;SDS011;11154;48.558;9.234;2023-02-28T04:40:11;3.33;;;2.15;;
21979;SDS011;11154;48.558;9.234;2023-02-28T04:42:13;3.50;;;2.35;;
21979;SDS011;11154;48.558;9.234;2023-02-28T04:44:14;4.22;;;2.58;;
21979;SDS011;11154;48.558;9.234;2023-02-28T04:46:17;4.38;;;2.83;;
21979;SDS011;11154;48.558;9.234;2023-02-28T04:48:20;4.85;;;2.70;;
21979;SDS011;11154;48.558;9.234;2023-02-28T04:50:22;3.47;;;2.63;;
21979;SDS011;11154;48.558;9.234;2023-02-28T04:52:24;4.97;;;2.38;;
21979;SDS011;11154;48.558;9.234;2023-02-28T04:54:25;4.40;;;2.75;;
21979;SDS011;11154;48.558;9.234;2023-02-28T04:56:28;4.45;;;2.55;;
21979;SDS011;11154;48.558;9.234;2023-02-28T04:58:29;4.40;;;2.65;;
21979;SDS011;11154;48.558;9.234;2023-02-28T05:00:31;4.65;;;2.60;;
21979;SDS011;11154;48.558;9.234;2023-02-28T05:02:35;4.22;;;2.33;;
21979;SDS011;11154;48.558;9.234;2023-02-28T05:04:37;5.20;;;2.88;;
21979;SDS011;11154;48.558;9.234;2023-02-28T05:06:39;5.30;;;3.35;;
21979;SDS011;11154;48.558;9.234;2023-02-28T05:08:40;4.93;;;2.70;;
21979;SDS011;11154;48.558;9.234;2023-02-28T05:10:42;4.53;;;2.63;;
21979;SDS011;11154;48.558;9.234;2023-02-28T05:12:44;3.50;;;2.47;;
21979;SDS011;11154;48.558;9.234;2023-02-28T05:14:45;5.60;;;2.95;;
21979;SDS011;11154;48.558;9.234;2023-02-28T05:16:47;5.20;;;3.17;;
21979;SDS011;11154;48.558;9.234;2023-02-28T05:18:50;4.65;;;2.88;;
21979;SDS011;11154;48.558;9.234;2023-02-28T05:20:53;4.78;;;2.92;;
21979;SDS011;11154;48.558;9.234;2023-02-28T05:22:55;5.43;;;3.25;;
21979;SDS011;11154;48.558;9.234;2023-02-28T05:24:59;6.07;;;3.33;;
21979;SDS011;11154;48.558;9.234;2023-02-28T05:27:00;6.88;;;3.80;;
21979;SDS011;11154;48.558;9.234;2023-02-28T05:29:03;5.50;;;3.03;;
21979;SDS011;11154;48.558;9.234;2023-02-28T05:31:05;4.75;;;3.20;;
21979;SDS011;11154;48.558;9.234;2023-02-28T05:33:10;5.38;;;3.10;;
21979;SDS011;11154;48.558;9.234;2023-02-28T05:35:13;5.90;;;3.20;;
21979;SDS011;11154;48.558;9.234;2023-02-28T05:37:15;6.15;;;2.97;;
21979;SDS011;11154;48.558;9.234;2023-02-28T05:39:17;4.25;;;3.15;;
21979;SDS011;11154;48.558;9.234;2023-02-28T05:41:19;6.30;;;3.30;;
21979;SDS011;11154;48.558;9.234;2023-02-28T05:43:21;4.97;;;3.42;;
21979;SDS011;11154;48.558;9.234;2023-02-28T05:45:23;4.95;;;3.15;;
21979;SDS011;11154;48.558;9.234;2023-02-28T05:47:25;4.32;;;3.03;;
21979;SDS011;11154;48.558;9.234;2023-02-28T05:49:26;6.30;;;3.28;;
21979;SDS011;11154;48.558;9.234;2023-02-28T05:51:30;5.50;;;3.38;;
21979;SDS011;11154;48.558;9.234;2023-02-28T05:53:31;5.85;;;3.50;;
21979;SDS011;11154;48.558;9.234;2023-02-28T05:55:34;4.90;;;3.40;;
21979;SDS011;11154;48.558;9.234;2023-02-28T05:57:37;5.22;;;3.30;;
21979;SDS011;11154;48.558;9.234;2023-02-28T05:59:38;4.55;;;3.30;;
21979;SDS011;11154;48.558;9.234;2023-02-28T06:01:41;6.70;;;3.70;;
21979;SDS011;11154;48.558;9.234;2023-02-28T06:03:47;5.22;;;3.58;;
21979;SDS011;11154;48.558;9.234;2023-02-28T06:05:49;8.77;;;3.40;;
21979;SDS011;11154;48.558;9.234;2023-02-28T06:07:52;7.05;;;3.63;;
21979;SDS011;11154;48.558;9.234;2023-02-28T06:09:54;6.45;;;3.78;;
21979;SDS011;11154;48.558;9.234;2023-02-28T06:11:57;4.75;;;3.25;;
21979;SDS011;11154;48.558;9.234;2023-02-28T06:13:59;4.82;;;3.47;;
21979;SDS011;11154;48.558;9.234;2023-02-28T06:16:01;5.68;;;3.55;;
21979;SDS011;11154;48.558;9.234;2023-02-28T06:18:03;9.30;;;4.18;;
21979;SDS011;11154;48.558;9.234;2023-02-28T06:20:05;6.28;;;3.80;;
21979;SDS011;11154;48.558;9.234;2023-02-28T06:22:08;6.07;;;3.40;;
21979;SDS011;11154;48.558;9.234;2023-02-28T06:24:11;6.72;;;3.80;;
21979;SDS011;11154;48.558;9.234;2023-02-28T06:26:13;9.32;;;4.13;;
21979;SDS011;11154;48.558;9.234;2023-02-28T06:28:15;6.15;;;3.38;;
21979;SDS011;11154;48.558;9.234;2023-02-28T06:30:17;6.25;;;3.85;;
21979;SDS011;11154;48.558;9.234;2023-02-28T06:32:23;8.18;;;4.45;;
21979;SDS011;11154;48.558;9.234;2023-02-28T06:34:25;5.28;;;3.70;;
21979;SDS011;11154;48.558;9.234;2023-02-28T06:36:27;5.32;;;3.78;;
21979;SDS011;11154;48.558;9.234;2023-02-28T06:38:28;7.25;;;3.97;;
21979;SDS011;11154;48.558;9.234;2023-02-28T06:40:32;6.78;;;3.60;;
21979;SDS011;11154;48.558;9.234;2023-02-28T06:42:35;5.50;;;4.25;;
21979;SDS011;11154;48.558;9.234;2023-02-28T06:44:38;5.97;;;3.50;;
21979;SDS011;11154;48.558;9.234;2023-02-28T06:46:40;7.55;;;4.15;;
21979;SDS011;11154;48.558;9.234;2023-02-28T06:48:42;6.20;;;3.90;;
21979;SDS011;11154;48.558;9.234;2023-02-28T06:50:44;7.47;;;4.28;;
21979;SDS011;11154;48.558;9.234;2023-02-28T06:52:46;9.60;;;4.32;;
21979;SDS011;11154;48.558;9.234;2023-02-28T06:54:48;9.20;;;5.22;;
21979;SDS011;11154;48.558;9.234;2023-02-28T06:57:01;8.30;;;4.07;;
21979;SDS011;11154;48.558;9.234;2023-02-28T06:59:03;9.73;;;4.90;;
21979;SDS011;11154;48.558;9.234;2023-02-28T07:01:05;5.13;;;3.85;;
21979;SDS011;11154;48.558;9.234;2023-02-28T07:03:07;6.03;;;3.88;;
21979;SDS011;11154;48.558;9.234;2023-02-28T07:05:09;6.43;;;4.63;;
21979;SDS011;11154;48.558;9.234;2023-02-28T07:07:10;7.10;;;4.20;;
21979;SDS011;11154;48.558;9.234;2023-02-28T07:09:12;8.98;;;4.63;;
21979;SDS011;11154;48.558;9.234;2023-02-28T07:11:14;8.43;;;4.30;;
21979;SDS011;11154;48.558;9.234;2023-02-28T07:13:17;6.63;;;4.18;;
21979;SDS011;11154;48.558;9.234;2023-02-28T07:15:19;7.50;;;4.70;;
21979;SDS011;11154;48.558;9.234;2023-02-28T07:17:21;6.80;;;4.45;;
21979;SDS011;11154;48.558;9.234;2023-02-28T07:19:22;5.93;;;3.75;;
21979;SDS011;11154;48.558;9.234;2023-02-28T07:21:24;6.25;;;4.45;;
21979;SDS011;11154;48.558;9.234;2023-02-28T07:23:26;7.45;;;4.93;;
21979;SDS011;11154;48.558;9.234;2023-02-28T07:25:28;8.32;;;5.32;;
21979;SDS011;11154;48.558;9.234;2023-02-28T07:27:30;11.98;;;6.70;;
21979;SDS011;11154;48.558;9.234;2023-02-28T07:29:33;8.77;;;5.20;;
21979;SDS011;11154;48.558;9.234;2023-02-28T07:31:34;5.53;;;3.65;;
21979;SDS011;11154;48.558;9.234;2023-02-28T07:33:36;6.68;;;4.22;;
21979;SDS011;11154;48.558;9.234;2023-02-28T07:35:38;9.48;;;4.85;;
21979;SDS011;11154;48.558;9.234;2023-02-28T07:37:40;6.70;;;4.78;;
21979;SDS011;11154;48.558;9.234;2023-02-28T07:39:42;8.07;;;4.75;;
21979;SDS011;11154;48.558;9.234;2023-02-28T07:41:43;9.63;;;5.35;;
21979;SDS011;11154;48.558;9.234;2023-02-28T07:43:45;10.50;;;5.35;;
21979;SDS011;11154;48.558;9.234;2023-02-28T07:45:48;9.00;;;5.60;;
21979;SDS011;11154;48.558;9.234;2023-02-28T07:47:50;6.40;;;4.30;;
21979;SDS011;11154;48.558;9.234;2023-02-28T07:49:52;7.43;;;5.13;;
21979;SDS011;11154;48.558;9.234;2023-02-28T07:51:53;7.43;;;4.85;;
21979;SDS011;11154;48.558;9.234;2023-02-28T07:53:55;8.07;;;5.30;;
21979;SDS011;11154;48.558;9.234;2023-02-28T07:55:57;7.40;;;5.20;;
21979;SDS011;11154;48.558;9.234;2023-02-28T07:58:00;8.88;;;5.78;;
21979;SDS011;11154;48.558;9.234;2023-02-28T08:00:03;7.68;;;5.32;;
21979;SDS011;11154;48.558;9.234;2023-02-28T08:02:08;8.25;;;5.10;;
21979;SDS011;11154;48.558;9.234;2023-02-28T08:04:12;8.23;;;5.53;;
21979;SDS011;11154;48.558;9.234;2023-02-28T08:06:18;7.70;;;5.10;;
21979;SDS011;11154;48.558;9.234;2023-02-28T08:08:21;8.23;;;4.95;;
21979;SDS011;11154;48.558;9.234;2023-02-28T08:10:23;8.10;;;5.25;;
21979;SDS011;11154;48.558;9.234;2023-02-28T08:12:25;8.52;;;5.28;;
21979;SDS011;11154;48.558;9.234;2023-02-28T08:14:27;7.40;;;5.00;;
21979;SDS011;11154;48.558;9.234;2023-02-28T08:16:28;6.72;;;5.03;;
21979;SDS011;11154;48.558;9.234;2023-02-28T08:18:31;6.13;;;4.97;;
21979;SDS011;11154;48.558;9.234;2023-02-28T08:20:33;6.88;;;4.78;;
21979;SDS011;11154;48.558;9.234;2023-02-28T08:22:35;6.75;;;4.47;;
21979;SDS011;11154;48.558;9.234;2023-02-28T08:24:37;10.73;;;5.18;;
21979;SDS011;11154;48.558;9.234;2023-02-28T08:26:38;6.68;;;5.00;;
21979;SDS011;11154;48.558;9.234;2023-02-28T08:28:40;8.32;;;5.82;;
21979;SDS011;11154;48.558;9.234;2023-02-28T08:30:42;10.13;;;5.57;;
21979;SDS011;11154;48.558;9.234;2023-02-28T08:32:43;8.43;;;5.72;;
21979;SDS011;11154;48.558;9.234;2023-02-28T08:34:46;7.05;;;5.53;;
21979;SDS011;11154;48.558;9.234;2023-02-28T08:36:48;9.25;;;5.55;;
21979;SDS011;11154;48.558;9.234;2023-02-28T08:38:50;8.38;;;5.45;;
21979;SDS011;11154;48.558;9.234;2023-02-28T08:40:56;9.38;;;6.40;;
21979;SDS011;11154;48.558;9.234;2023-02-28T08:42:59;8.82;;;5.65;;
21979;SDS011;11154;48.558;9.234;2023-02-28T08:45:01;8.45;;;5.43;;
21979;SDS011;11154;48.558;9.234;2023-02-28T08:47:03;9.88;;;5.90;;
21979;SDS011;11154;48.558;9.234;2023-02-28T08:49:05;7.18;;;5.40;;
21979;SDS011;11154;48.558;9.234;2023-02-28T08:51:09;9.02;;;5.35;;
21979;SDS011;11154;48.558;9.234;2023-02-28T08:53:13;8.57;;;5.07;;
21979;SDS011;11154;48.558;9.234;2023-02-28T08:55:15;8.95;;;5.85;;
21979;SDS011;11154;48.558;9.234;2023-02-28T08:57:17;8.00;;;5.57;;
21979;SDS011;11154;48.558;9.234;2023-02-28T08:59:18;7.75;;;5.70;;
21979;SDS011;11154;48.558;9.234;2023-02-28T09:01:21;9.40;;;6.13;;
21979;SDS011;11154;48.558;9.234;2023-02-28T09:03:24;8.02;;;5.68;;
21979;SDS011;11154;48.558;9.234;2023-02-28T09:05:27;6.93;;;5.38;;
21979;SDS011;11154;48.558;9.234;2023-02-28T09:07:30;9.98;;;5.82;;
21979;SDS011;11154;48.558;9.234;2023-02-28T09:09:32;8.18;;;5.75;;
21979;SDS011;11154;48.558;9.234;2023-02-28T09:11:34;8.02;;;5.68;;
21979;SDS011;11154;48.558;9.234;2023-02-28T09:13:36;9.23;;;5.95;;
21979;SDS011;11154;48.558;9.234;2023-02-28T09:15:38;9.23;;;5.78;;
21979;SDS011;11154;48.558;9.234;2023-02-28T09:17:40;11.68;;;5.97;;
21979;SDS011;11154;48.558;9.234;2023-02-28T09:19:42;8.05;;;5.55;;
21979;SDS011;11154;48.558;9.234;2023-02-28T09:21:44;7.63;;;6.05;;
21979;SDS011;11154;48.558;9.234;2023-02-28T09:23:47;7.72;;;5.65;;
21979;SDS011;11154;48.558;9.234;2023-02-28T09:25:52;8.52;;;5.72;;
21979;SDS011;11154;48.558;9.234;2023-02-28T09:27:54;9.40;;;6.07;;
21979;SDS011;11154;48.558;9.234;2023-02-28T09:29:56;8.65;;;5.95;;
21979;SDS011;11154;48.558;9.234;2023-02-28T09:31:58;9.07;;;6.00;;
21979;SDS011;11154;48.558;9.234;2023-02-28T09:34:00;8.63;;;5.75;;
21979;SDS011;11154;48.558;9.234;2023-02-28T09:36:02;8.15;;;5.85;;
21979;SDS011;11154;48.558;9.234;2023-02-28T09:38:04;8.88;;;5.97;;
21979;SDS011;11154;48.558;9.234;2023-02-28T09:40:09;9.05;;;5.75;;
21979;SDS011;11154;48.558;9.234;2023-02-28T09:42:17;9.50;;;6.47;;
21979;SDS011;11154;48.558;9.234;2023-02-28T09:44:24;8.70;;;5.72;;
21979;SDS011;11154;48.558;9.234;2023-02-28T09:46:31;9.57;;;6.00;;
21979;SDS011;11154;48.558;9.234;2023-02-28T09:48:35;8.70;;;6.00;;
21979;SDS011;11154;48.558;9.234;2023-02-28T09:50:43;7.22;;;5.10;;
21979;SDS011;11154;48.558;9.234;2023-02-28T09:52:49;8.27;;;5.65;;
21979;SDS011;11154;48.558;9.234;2023-02-28T09:54:51;9.52;;;6.15;;
21979;SDS011;11154;48.558;9.234;2023-02-28T09:56:55;7.30;;;5.78;;
21979;SDS011;11154;48.558;9.234;2023-02-28T09:59:02;7.25;;;5.65;;
21979;SDS011;11154;48.558;9.234;2023-02-28T10:01:12;9.20;;;6.15;;
21979;SDS011;11154;48.558;9.234;2023-02-28T10:03:25;8.75;;;6.13;;
21979;SDS011;11154;48.558;9.234;2023-02-28T10:05:32;8.52;;;6.20;;
21979;SDS011;11154;48.558;9.234;2023-02-28T10:07:50;7.47;;;5.47;;
21979;SDS011;11154;48.558;9.234;2023-02-28T10:10:02;9.40;;;5.68;;
21979;SDS011;11154;48.558;9.234;2023-02-28T10:12:17;8.07;;;5.60;;
21979;SDS011;11154;48.558;9.234;2023-02-28T10:14:21;8.57;;;5.63;;
21979;SDS011;11154;48.558;9.234;2023-02-28T10:16:26;9.60;;;6.32;;
21979;SDS011;11154;48.558;9.234;2023-02-28T10:18:35;25.10;;;14.32;;
21979;SDS011;11154;48.558;9.234;2023-02-28T10:20:44;9.57;;;6.28;;
21979;SDS011;11154;48.558;9.234;2023-02-28T10:22:50;9.20;;;5.97;;
21979;SDS011;11154;48.558;9.234;2023-02-28T10:24:55;7.65;;;6.18;;
21979;SDS011;11154;48.558;9.234;2023-02-28T10:27:00;7.65;;;5.85;;
21979;SDS011;11154;48.558;9.234;2023-02-28T10:29:09;11.40;;;7.75;;
21979;SDS011;11154;48.558;9.234;2023-02-28T10:31:11;8.00;;;6.05;;
21979;SDS011;11154;48.558;9.234;2023-02-28T10:33:20;11.07;;;7.53;;
21979;SDS011;11154;48.558;9.234;2023-02-28T10:35:24;9.98;;;6.18;;
21979;SDS011;11154;48.558;9.234;2023-02-28T10:37:28;8.13;;;6.28;;
21979;SDS011;11154;48.558;9.234;2023-02-28T10:39:36;7.07;;;5.70;;
21979;SDS011;11154;48.558;9.234;2023-02-28T10:41:42;8.75;;;6.40;;
21979;SDS011;11154;48.558;9.234;2023-02-28T10:43:44;9.25;;;6.07;;
21979;SDS011;11154;48.558;9.234;2023-02-28T10:45:53;7.85;;;5.55;;
21979;SDS011;11154;48.558;9.234;2023-02-28T10:47:59;7.03;;;5.80;;
21979;SDS011;11154;48.558;9.234;2023-02-28T10:50:03;9.63;;;5.97;;
21979;SDS011;11154;48.558;9.234;2023-02-28T10:52:07;10.80;;;6.22;;
21979;SDS011;11154;48.558;9.234;2023-02-28T10:54:14;9.75;;;6.38;;
21979;SDS011;11154;48.558;9.234;2023-02-28T10:56:18;8.00;;;6.13;;
21979;SDS011;11154;48.558;9.234;2023-02-28T10:58:22;8.60;;;6.22;;
21979;SDS011;11154;48.558;9.234;2023-02-28T11:00:26;9.88;;;6.70;;
21979;SDS011;11154;48.558;9.234;2023-02-28T11:02:36;8.05;;;6.47;;
21979;SDS011;11154;48.558;9.234;2023-02-28T11:04:40;8.40;;;6.53;;
21979;SDS011;11154;48.558;9.234;2023-02-28T11:06:42;6.68;;;5.70;;
21979;SDS011;11154;48.558;9.234;2023-02-28T11:08:45;8.20;;;5.78;;
21979;SDS011;11154;48.558;9.234;2023-02-28T11:10:53;12.50;;;6.68;;
21979;SDS011;11154;48.558;9.234;2023-02-28T11:12:56;8.07;;;6.13;;
21979;SDS011;11154;48.558;9.234;2023-02-28T11:15:00;9.55;;;6.35;;
21979;SDS011;11154;48.558;9.234;2023-02-28T11:17:11;9.13;;;6.57;;
21979;SDS011;11154;48.558;9.234;2023-02-28T11:19:19;9.07;;;6.85;;
21979;SDS011;11154;48.558;9.234;2023-02-28T11:21:24;11.15;;;6.32;;
21979;SDS011;11154;48.558;9.234;2023-02-28T11:23:28;9.13;;;5.90;;
21979;SDS011;11154;48.558;9.234;2023-02-28T11:25:35;8.38;;;5.93;;
21979;SDS011;11154;48.558;9.234;2023-02-28T11:27:44;9.18;;;6.45;;
21979;SDS011;11154;48.558;9.234;2023-02-28T11:32:04;10.70;;;5.65;;
21979;SDS011;11154;48.558;9.234;2023-02-28T11:34:24;8.55;;;5.95;;
21979;SDS011;11154;48.558;9.234;2023-02-28T11:36:28;10.05;;;6.00;;
21979;SDS011;11154;48.558;9.234;2023-02-28T11:38:31;8.05;;;6.68;;
21979;SDS011;11154;48.558;9.234;2023-02-28T11:40:38;8.50;;;6.30;;
21979;SDS011;11154;48.558;9.234;2023-02-28T11:42:47;8.05;;;5.97;;
21979;SDS011;11154;48.558;9.234;2023-02-28T11:45:00;8.30;;;6.20;;
21979;SDS011;11154;48.558;9.234;2023-02-28T11:47:10;10.68;;;6.78;;
21979;SDS011;11154;48.558;9.234;2023-02-28T11:49:22;7.45;;;6.15;;
21979;SDS011;11154;48.558;9.234;2023-02-28T11:51:34;7.97;;;5.88;;
21979;SDS011;11154;48.558;9.234;2023-02-28T11:53:48;10.25;;;6.40;;
21979;SDS011;11154;48.558;9.234;2023-02-28T11:56:19;10.65;;;6.47;;
21979;SDS011;11154;48.558;9.234;2023-02-28T11:58:29;8.65;;;6.57;;
21979;SDS011;11154;48.558;9.234;2023-02-28T12:00:42;10.18;;;6.85;;
21979;SDS011;11154;48.558;9.234;2023-02-28T12:02:58;10.07;;;6.97;;
21979;SDS011;11154;48.558;9.234;2023-02-28T12:05:17;10.13;;;6.60;;
21979;SDS011;11154;48.558;9.234;2023-02-28T12:07:26;8.15;;;5.82;;
21979;SDS011;11154;48.558;9.234;2023-02-28T12:09:39;8.30;;;6.40;;
21979;SDS011;11154;48.558;9.234;2023-02-28T12:11:52;8.50;;;6.07;;
21979;SDS011;11154;48.558;9.234;2023-02-28T12:14:00;8.77;;;6.10;;
21979;SDS011;11154;48.558;9.234;2023-02-28T12:16:23;10.32;;;6.47;;
21979;SDS011;11154;48.558;9.234;2023-02-28T12:21:08;9.25;;;6.32;;
21979;SDS011;11154;48.558;9.234;2023-02-28T12:23:22;7.85;;;6.10;;
21979;SDS011;11154;48.558;9.234;2023-02-28T12:25:38;9.40;;;5.88;;
21979;SDS011;11154;48.558;9.234;2023-02-28T12:27:49;8.88;;;5.93;;
21979;SDS011;11154;48.558;9.234;2023-02-28T12:29:54;9.13;;;6.95;;
21979;SDS011;11154;48.558;9.234;2023-02-28T12:32:01;11.15;;;7.15;;
21979;SDS011;11154;48.558;9.234;2023-02-28T12:34:09;10.35;;;6.93;;
21979;SDS011;11154;48.558;9.234;2023-02-28T12:36:16;10.50;;;6.88;;
21979;SDS011;11154;48.558;9.234;2023-02-28T12:38:22;8.63;;;6.53;;
21979;SDS011;11154;48.558;9.234;2023-02-28T12:40:29;10.07;;;6.90;;
21979;SDS011;11154;48.558;9.234;2023-02-28T12:42:41;9.40;;;6.90;;
21979;SDS011;11154;48.558;9.234;2023-02-28T12:44:48;8.63;;;6.40;;